sensor_id;sensor_type;location;lat;lon;timestamp;temperature;humidity
54540;SHT30;40438;52.992;18.604;2023-04-03T00:01:13;19.22;56.96
54540;SHT30;40438;52.992;18.604;2023-04-03T00:03:39;19.23;56.56
54540;SHT30;40438;52.992;18.604;2023-04-03T00:06:05;19.18;56.80
54540;SHT30;40438;52.992;18.604;2023-04-03T00:08:31;19.16;56.70
54540;SHT30;40438;52.992;18.604;2023-04-03T00:10:57;19.15;56.67
54540;SHT30;40438;52.992;18.604;2023-04-03T00:13:24;19.15;56.77
54540;SHT30;40438;52.992;18.604;2023-04-03T00:15:50;19.15;56.72
54540;SHT30;40438;52.992;18.604;2023-04-03T00:18:15;19.11;56.71
54540;SHT30;40438;52.992;18.604;2023-04-03T00:20:41;19.12;56.79
54540;SHT30;40438;52.992;18.604;2023-04-03T00:23:07;19.12;56.37
54540;SHT30;40438;52.992;18.604;2023-04-03T00:25:33;19.06;56.36
54540;SHT30;40438;52.992;18.604;2023-04-03T00:28:00;19.08;56.45
54540;SHT30;40438;52.992;18.604;2023-04-03T00:30:27;19.06;56.36
54540;SHT30;40438;52.992;18.604;2023-04-03T00:32:54;19.06;56.73
54540;SHT30;40438;52.992;18.604;2023-04-03T00:35:22;19.02;56.35
54540;SHT30;40438;52.992;18.604;2023-04-03T00:37:50;19.04;56.26
54540;SHT30;40438;52.992;18.604;2023-04-03T00:40:16;19.02;56.50
54540;SHT30;40438;52.992;18.604;2023-04-03T00:42:44;18.99;56.13
54540;SHT30;40438;52.992;18.604;2023-04-03T00:45:35;19.01;56.51
54540;SHT30;40438;52.992;18.604;2023-04-03T00:48:04;19.02;56.40
54540;SHT30;40438;52.992;18.604;2023-04-03T00:50:32;18.96;56.37
54540;SHT30;40438;52.992;18.604;2023-04-03T00:53:00;18.95;56.28
54540;SHT30;40438;52.992;18.604;2023-04-03T00:55:27;18.94;56.35
54540;SHT30;40438;52.992;18.604;2023-04-03T00:57:53;18.92;56.48
54540;SHT30;40438;52.992;18.604;2023-04-03T01:00:21;18.92;55.91
54540;SHT30;40438;52.992;18.604;2023-04-03T01:02:49;18.91;56.16
54540;SHT30;40438;52.992;18.604;2023-04-03T01:05:16;18.89;56.56
54540;SHT30;40438;52.992;18.604;2023-04-03T01:07:44;18.89;56.54
54540;SHT30;40438;52.992;18.604;2023-04-03T01:10:12;18.88;56.40
54540;SHT30;40438;52.992;18.604;2023-04-03T01:12:41;18.85;56.68
54540;SHT30;40438;52.992;18.604;2023-04-03T01:15:09;18.87;56.32
54540;SHT30;40438;52.992;18.604;2023-04-03T01:17:37;18.85;56.43
54540;SHT30;40438;52.992;18.604;2023-04-03T01:20:37;18.85;56.71
54540;SHT30;40438;52.992;18.604;2023-04-03T01:23:17;18.84;56.82
54540;SHT30;40438;52.992;18.604;2023-04-03T01:25:49;18.83;56.60
54540;SHT30;40438;52.992;18.604;2023-04-03T01:28:17;18.83;56.66
54540;SHT30;40438;52.992;18.604;2023-04-03T01:30:46;18.81;56.91
54540;SHT30;40438;52.992;18.604;2023-04-03T01:33:15;18.77;56.72
54540;SHT30;40438;52.992;18.604;2023-04-03T01:35:41;18.78;56.75
54540;SHT30;40438;52.992;18.604;2023-04-03T01:38:07;18.80;56.84
54540;SHT30;40438;52.992;18.604;2023-04-03T01:40:33;18.80;56.93
54540;SHT30;40438;52.992;18.604;2023-04-03T01:42:59;18.75;56.86
54540;SHT30;40438;52.992;18.604;2023-04-03T01:45:25;18.75;56.76
54540;SHT30;40438;52.992;18.604;2023-04-03T01:47:51;18.77;56.72
54540;SHT30;40438;52.992;18.604;2023-04-03T01:50:18;18.73;56.86
54540;SHT30;40438;52.992;18.604;2023-04-03T01:52:44;18.73;56.74
54540;SHT30;40438;52.992;18.604;2023-04-03T01:55:10;18.73;56.90
54540;SHT30;40438;52.992;18.604;2023-04-03T01:57:36;18.71;57.07
54540;SHT30;40438;52.992;18.604;2023-04-03T02:00:03;18.73;57.04
54540;SHT30;40438;52.992;18.604;2023-04-03T02:02:38;18.73;57.02
54540;SHT30;40438;52.992;18.604;2023-04-03T02:05:05;18.68;57.03
54540;SHT30;40438;52.992;18.604;2023-04-03T02:07:32;18.68;56.77
54540;SHT30;40438;52.992;18.604;2023-04-03T02:09:58;18.65;56.83
54540;SHT30;40438;52.992;18.604;2023-04-03T02:12:24;18.65;56.71
54540;SHT30;40438;52.992;18.604;2023-04-03T02:14:50;18.65;56.91
54540;SHT30;40438;52.992;18.604;2023-04-03T02:17:16;18.65;57.07
54540;SHT30;40438;52.992;18.604;2023-04-03T02:19:41;18.64;56.99
54540;SHT30;40438;52.992;18.604;2023-04-03T02:22:07;18.64;56.88
54540;SHT30;40438;52.992;18.604;2023-04-03T02:24:34;18.64;57.03
54540;SHT30;40438;52.992;18.604;2023-04-03T02:27:00;18.63;57.02
54540;SHT30;40438;52.992;18.604;2023-04-03T02:29:26;18.61;57.11
54540;SHT30;40438;52.992;18.604;2023-04-03T02:31:53;18.64;57.04
54540;SHT30;40438;52.992;18.604;2023-04-03T02:34:20;18.60;57.09
54540;SHT30;40438;52.992;18.604;2023-04-03T02:36:46;18.57;57.01
54540;SHT30;40438;52.992;18.604;2023-04-03T02:39:13;18.59;57.19
54540;SHT30;40438;52.992;18.604;2023-04-03T02:41:40;18.57;57.18
54540;SHT30;40438;52.992;18.604;2023-04-03T02:44:12;18.60;57.06
54540;SHT30;40438;52.992;18.604;2023-04-03T02:46:38;18.57;57.07
54540;SHT30;40438;52.992;18.604;2023-04-03T02:49:04;18.59;56.96
54540;SHT30;40438;52.992;18.604;2023-04-03T02:51:30;18.54;57.13
54540;SHT30;40438;52.992;18.604;2023-04-03T02:53:56;18.53;57.04
54540;SHT30;40438;52.992;18.604;2023-04-03T02:56:26;18.54;57.18
54540;SHT30;40438;52.992;18.604;2023-04-03T02:58:54;18.54;57.21
54540;SHT30;40438;52.992;18.604;2023-04-03T03:01:20;18.50;56.94
54540;SHT30;40438;52.992;18.604;2023-04-03T03:03:46;18.52;56.69
54540;SHT30;40438;52.992;18.604;2023-04-03T03:06:13;18.63;56.74
54540;SHT30;40438;52.992;18.604;2023-04-03T03:08:40;18.70;56.69
54540;SHT30;40438;52.992;18.604;2023-04-03T03:11:06;18.80;57.18
54540;SHT30;40438;52.992;18.604;2023-04-03T03:13:33;18.89;57.14
54540;SHT30;40438;52.992;18.604;2023-04-03T03:16:01;19.01;57.35
54540;SHT30;40438;52.992;18.604;2023-04-03T03:18:27;19.09;57.08
54540;SHT30;40438;52.992;18.604;2023-04-03T03:20:54;19.09;56.61
54540;SHT30;40438;52.992;18.604;2023-04-03T03:23:21;19.19;56.32
54540;SHT30;40438;52.992;18.604;2023-04-03T03:25:47;19.25;56.11
54540;SHT30;40438;52.992;18.604;2023-04-03T03:28:13;19.35;56.61
54540;SHT30;40438;52.992;18.604;2023-04-03T03:30:39;19.47;56.21
54540;SHT30;40438;52.992;18.604;2023-04-03T03:33:06;19.54;55.94
54540;SHT30;40438;52.992;18.604;2023-04-03T03:35:32;19.53;55.33
54540;SHT30;40438;52.992;18.604;2023-04-03T03:37:58;19.57;55.36
54540;SHT30;40438;52.992;18.604;2023-04-03T03:40:24;19.64;55.20
54540;SHT30;40438;52.992;18.604;2023-04-03T03:42:50;19.69;54.74
54540;SHT30;40438;52.992;18.604;2023-04-03T03:45:15;19.71;54.64
54540;SHT30;40438;52.992;18.604;2023-04-03T03:47:41;19.84;54.59
54540;SHT30;40438;52.992;18.604;2023-04-03T03:50:09;19.94;54.40
54540;SHT30;40438;52.992;18.604;2023-04-03T03:52:35;20.00;54.19
54540;SHT30;40438;52.992;18.604;2023-04-03T03:55:01;20.01;54.10
54540;SHT30;40438;52.992;18.604;2023-04-03T03:57:27;20.04;53.86
54540;SHT30;40438;52.992;18.604;2023-04-03T03:59:53;20.07;53.65
54540;SHT30;40438;52.992;18.604;2023-04-03T04:02:19;20.10;53.55
54540;SHT30;40438;52.992;18.604;2023-04-03T04:04:44;20.12;53.36
54540;SHT30;40438;52.992;18.604;2023-04-03T04:07:12;20.11;53.43
54540;SHT30;40438;52.992;18.604;2023-04-03T04:09:38;20.14;53.42
54540;SHT30;40438;52.992;18.604;2023-04-03T04:12:04;20.17;53.41
54540;SHT30;40438;52.992;18.604;2023-04-03T04:14:32;20.18;53.26
54540;SHT30;40438;52.992;18.604;2023-04-03T04:16:58;20.21;53.14
54540;SHT30;40438;52.992;18.604;2023-04-03T04:19:26;20.24;53.03
54540;SHT30;40438;52.992;18.604;2023-04-03T04:21:53;20.25;53.02
54540;SHT30;40438;52.992;18.604;2023-04-03T04:24:20;20.26;52.94
54540;SHT30;40438;52.992;18.604;2023-04-03T04:26:48;20.28;52.86
54540;SHT30;40438;52.992;18.604;2023-04-03T04:29:16;20.31;52.60
54540;SHT30;40438;52.992;18.604;2023-04-03T04:31:44;20.33;52.54
54540;SHT30;40438;52.992;18.604;2023-04-03T04:34:10;20.32;52.45
54540;SHT30;40438;52.992;18.604;2023-04-03T04:36:37;20.35;52.46
54540;SHT30;40438;52.992;18.604;2023-04-03T04:39:03;20.38;52.57
54540;SHT30;40438;52.992;18.604;2023-04-03T04:41:30;20.41;52.60
54540;SHT30;40438;52.992;18.604;2023-04-03T04:43:56;20.42;52.52
54540;SHT30;40438;52.992;18.604;2023-04-03T04:46:23;20.45;52.42
54540;SHT30;40438;52.992;18.604;2023-04-03T04:48:53;20.45;52.28
54540;SHT30;40438;52.992;18.604;2023-04-03T04:51:21;20.48;52.26
54540;SHT30;40438;52.992;18.604;2023-04-03T04:53:47;20.48;52.15
54540;SHT30;40438;52.992;18.604;2023-04-03T04:56:15;20.51;52.21
54540;SHT30;40438;52.992;18.604;2023-04-03T04:58:43;20.55;52.12
54540;SHT30;40438;52.992;18.604;2023-04-03T05:01:10;20.56;52.05
54540;SHT30;40438;52.992;18.604;2023-04-03T05:03:43;20.55;51.94
54540;SHT30;40438;52.992;18.604;2023-04-03T05:06:09;20.56;51.92
54540;SHT30;40438;52.992;18.604;2023-04-03T05:08:36;20.57;51.85
54540;SHT30;40438;52.992;18.604;2023-04-03T05:11:02;20.56;51.86
54540;SHT30;40438;52.992;18.604;2023-04-03T05:13:30;20.57;51.80
54540;SHT30;40438;52.992;18.604;2023-04-03T05:15:58;20.60;51.67
54540;SHT30;40438;52.992;18.604;2023-04-03T05:18:24;20.64;51.65
54540;SHT30;40438;52.992;18.604;2023-04-03T05:20:52;20.64;51.58
54540;SHT30;40438;52.992;18.604;2023-04-03T05:23:19;20.68;51.50
54540;SHT30;40438;52.992;18.604;2023-04-03T05:25:46;20.66;51.52
54540;SHT30;40438;52.992;18.604;2023-04-03T05:28:12;20.64;51.54
54540;SHT30;40438;52.992;18.604;2023-04-03T05:30:38;20.69;51.57
54540;SHT30;40438;52.992;18.604;2023-04-03T05:33:06;20.72;51.45
54540;SHT30;40438;52.992;18.604;2023-04-03T05:35:38;20.75;51.41
54540;SHT30;40438;52.992;18.604;2023-04-03T05:38:05;20.76;51.44
54540;SHT30;40438;52.992;18.604;2023-04-03T05:40:32;20.77;51.55
54540;SHT30;40438;52.992;18.604;2023-04-03T05:42:58;20.79;51.63
54540;SHT30;40438;52.992;18.604;2023-04-03T05:45:26;20.82;51.63
54540;SHT30;40438;52.992;18.604;2023-04-03T05:47:52;20.82;51.81
54540;SHT30;40438;52.992;18.604;2023-04-03T05:50:20;20.80;51.98
54540;SHT30;40438;52.992;18.604;2023-04-03T05:52:50;20.82;52.05
54540;SHT30;40438;52.992;18.604;2023-04-03T05:55:17;20.36;47.95
54540;SHT30;40438;52.992;18.604;2023-04-03T05:57:44;20.43;50.27
54540;SHT30;40438;52.992;18.604;2023-04-03T06:00:13;20.51;51.41
54540;SHT30;40438;52.992;18.604;2023-04-03T06:02:47;20.60;51.22
54540;SHT30;40438;52.992;18.604;2023-04-03T06:05:19;20.63;51.21
54540;SHT30;40438;52.992;18.604;2023-04-03T06:07:45;20.64;51.67
54540;SHT30;40438;52.992;18.604;2023-04-03T06:10:11;20.55;51.33
54540;SHT30;40438;52.992;18.604;2023-04-03T06:12:37;20.52;51.74
54540;SHT30;40438;52.992;18.604;2023-04-03T06:15:04;20.62;52.00
54540;SHT30;40438;52.992;18.604;2023-04-03T06:17:30;20.59;51.46
54540;SHT30;40438;52.992;18.604;2023-04-03T06:19:55;20.60;51.92
54540;SHT30;40438;52.992;18.604;2023-04-03T06:22:23;20.57;52.09
54540;SHT30;40438;52.992;18.604;2023-04-03T06:24:48;20.57;52.36
54540;SHT30;40438;52.992;18.604;2023-04-03T06:27:14;20.57;52.16
54540;SHT30;40438;52.992;18.604;2023-04-03T06:29:40;20.55;52.20
54540;SHT30;40438;52.992;18.604;2023-04-03T06:32:06;20.62;52.50
54540;SHT30;40438;52.992;18.604;2023-04-03T06:34:31;20.59;51.77
54540;SHT30;40438;52.992;18.604;2023-04-03T06:36:57;20.60;52.11
54540;SHT30;40438;52.992;18.604;2023-04-03T06:39:24;20.57;51.87
54540;SHT30;40438;52.992;18.604;2023-04-03T06:41:50;20.99;50.94
54540;SHT30;40438;52.992;18.604;2023-04-03T06:44:17;21.18;50.37
54540;SHT30;40438;52.992;18.604;2023-04-03T06:46:44;21.21;49.77
54540;SHT30;40438;52.992;18.604;2023-04-03T06:49:10;21.30;49.53
54540;SHT30;40438;52.992;18.604;2023-04-03T06:51:36;21.34;49.44
54540;SHT30;40438;52.992;18.604;2023-04-03T06:54:03;21.41;49.25
54540;SHT30;40438;52.992;18.604;2023-04-03T06:56:31;21.44;49.19
54540;SHT30;40438;52.992;18.604;2023-04-03T06:58:57;21.49;49.20
54540;SHT30;40438;52.992;18.604;2023-04-03T07:01:23;21.47;49.13
54540;SHT30;40438;52.992;18.604;2023-04-03T07:03:50;21.49;49.78
54540;SHT30;40438;52.992;18.604;2023-04-03T07:06:17;21.58;50.29
54540;SHT30;40438;52.992;18.604;2023-04-03T07:08:44;21.61;48.78
54540;SHT30;40438;52.992;18.604;2023-04-03T07:11:11;21.58;48.86
54540;SHT30;40438;52.992;18.604;2023-04-03T07:13:38;21.65;49.15
54540;SHT30;40438;52.992;18.604;2023-04-03T07:16:05;21.69;48.75
54540;SHT30;40438;52.992;18.604;2023-04-03T07:18:31;21.72;48.51
54540;SHT30;40438;52.992;18.604;2023-04-03T07:20:57;21.76;48.52
54540;SHT30;40438;52.992;18.604;2023-04-03T07:23:23;21.73;48.47
54540;SHT30;40438;52.992;18.604;2023-04-03T07:25:50;21.76;48.46
54540;SHT30;40438;52.992;18.604;2023-04-03T07:28:17;21.78;48.41
54540;SHT30;40438;52.992;18.604;2023-04-03T07:30:45;21.79;48.23
54540;SHT30;40438;52.992;18.604;2023-04-03T07:33:13;21.79;48.46
54540;SHT30;40438;52.992;18.604;2023-04-03T07:35:39;21.78;48.29
54540;SHT30;40438;52.992;18.604;2023-04-03T07:38:05;21.82;48.09
54540;SHT30;40438;52.992;18.604;2023-04-03T07:40:31;21.83;48.45
54540;SHT30;40438;52.992;18.604;2023-04-03T07:42:56;21.83;47.65
54540;SHT30;40438;52.992;18.604;2023-04-03T07:45:22;21.80;47.65
54540;SHT30;40438;52.992;18.604;2023-04-03T07:47:49;21.85;47.72
54540;SHT30;40438;52.992;18.604;2023-04-03T07:50:15;21.44;38.38
54540;SHT30;40438;52.992;18.604;2023-04-03T07:52:41;21.63;45.32
54540;SHT30;40438;52.992;18.604;2023-04-03T07:55:08;21.76;46.59
54540;SHT30;40438;52.992;18.604;2023-04-03T07:57:34;21.80;46.77
54540;SHT30;40438;52.992;18.604;2023-04-03T07:59:59;21.80;46.73
54540;SHT30;40438;52.992;18.604;2023-04-03T08:02:25;21.83;46.59
54540;SHT30;40438;52.992;18.604;2023-04-03T08:04:52;21.85;46.44
54540;SHT30;40438;52.992;18.604;2023-04-03T08:07:18;21.89;46.43
54540;SHT30;40438;52.992;18.604;2023-04-03T08:09:44;21.86;46.33
54540;SHT30;40438;52.992;18.604;2023-04-03T08:12:10;21.85;46.73
54540;SHT30;40438;52.992;18.604;2023-04-03T08:14:36;21.90;46.84
54540;SHT30;40438;52.992;18.604;2023-04-03T08:17:01;21.86;46.84
54540;SHT30;40438;52.992;18.604;2023-04-03T08:19:27;21.85;46.72
54540;SHT30;40438;52.992;18.604;2023-04-03T08:21:54;21.89;46.48
54540;SHT30;40438;52.992;18.604;2023-04-03T08:24:21;21.85;46.58
54540;SHT30;40438;52.992;18.604;2023-04-03T08:26:47;21.92;46.63
54540;SHT30;40438;52.992;18.604;2023-04-03T08:29:12;21.98;46.52
54540;SHT30;40438;52.992;18.604;2023-04-03T08:31:38;21.95;46.62
54540;SHT30;40438;52.992;18.604;2023-04-03T08:34:05;21.98;46.65
54540;SHT30;40438;52.992;18.604;2023-04-03T08:36:31;21.96;46.84
54540;SHT30;40438;52.992;18.604;2023-04-03T08:38:58;21.99;46.79
54540;SHT30;40438;52.992;18.604;2023-04-03T08:41:29;21.96;46.78
54540;SHT30;40438;52.992;18.604;2023-04-03T08:44:07;21.96;46.81
54540;SHT30;40438;52.992;18.604;2023-04-03T08:46:46;21.99;46.66
54540;SHT30;40438;52.992;18.604;2023-04-03T08:49:21;21.99;46.77
54540;SHT30;40438;52.992;18.604;2023-04-03T08:51:49;21.96;46.62
54540;SHT30;40438;52.992;18.604;2023-04-03T08:54:24;21.99;46.59
54540;SHT30;40438;52.992;18.604;2023-04-03T08:56:50;22.03;46.79
54540;SHT30;40438;52.992;18.604;2023-04-03T08:59:21;22.06;46.38
54540;SHT30;40438;52.992;18.604;2023-04-03T09:01:49;22.03;46.28
54540;SHT30;40438;52.992;18.604;2023-04-03T09:04:16;22.05;46.25
54540;SHT30;40438;52.992;18.604;2023-04-03T09:06:45;22.05;46.16
54540;SHT30;40438;52.992;18.604;2023-04-03T09:09:14;22.03;46.02
54540;SHT30;40438;52.992;18.604;2023-04-03T09:11:49;22.05;46.15
54540;SHT30;40438;52.992;18.604;2023-04-03T09:14:24;22.05;45.89
54540;SHT30;40438;52.992;18.604;2023-04-03T09:16:55;22.00;46.12
54540;SHT30;40438;52.992;18.604;2023-04-03T09:19:25;22.09;46.03
54540;SHT30;40438;52.992;18.604;2023-04-03T09:21:57;22.10;45.84
54540;SHT30;40438;52.992;18.604;2023-04-03T09:24:23;22.14;45.70
54540;SHT30;40438;52.992;18.604;2023-04-03T09:26:53;22.12;45.66
54540;SHT30;40438;52.992;18.604;2023-04-03T09:29:22;22.08;45.74
54540;SHT30;40438;52.992;18.604;2023-04-03T09:31:50;22.06;45.77
54540;SHT30;40438;52.992;18.604;2023-04-03T09:34:20;22.05;45.28
54540;SHT30;40438;52.992;18.604;2023-04-03T09:36:49;22.00;45.65
54540;SHT30;40438;52.992;18.604;2023-04-03T09:39:17;22.05;46.68
54540;SHT30;40438;52.992;18.604;2023-04-03T09:41:57;22.02;47.12
54540;SHT30;40438;52.992;18.604;2023-04-03T09:44:24;21.99;47.17
54540;SHT30;40438;52.992;18.604;2023-04-03T09:46:50;21.96;47.15
54540;SHT30;40438;52.992;18.604;2023-04-03T09:49:17;21.93;47.10
54540;SHT30;40438;52.992;18.604;2023-04-03T09:51:43;21.93;47.20
54540;SHT30;40438;52.992;18.604;2023-04-03T09:54:39;20.72;28.06
54540;SHT30;40438;52.992;18.604;2023-04-03T09:57:09;20.32;36.96
54540;SHT30;40438;52.992;18.604;2023-04-03T09:59:39;20.96;40.59
54540;SHT30;40438;52.992;18.604;2023-04-03T10:02:22;21.22;42.01
54540;SHT30;40438;52.992;18.604;2023-04-03T10:04:48;21.35;42.50
54540;SHT30;40438;52.992;18.604;2023-04-03T10:07:30;21.44;42.60
54540;SHT30;40438;52.992;18.604;2023-04-03T10:09:57;21.51;42.63
54540;SHT30;40438;52.992;18.604;2023-04-03T10:12:24;21.55;42.93
54540;SHT30;40438;52.992;18.604;2023-04-03T10:14:55;21.49;38.14
54540;SHT30;40438;52.992;18.604;2023-04-03T10:17:28;21.13;40.38
54540;SHT30;40438;52.992;18.604;2023-04-03T10:19:58;21.41;41.53
54540;SHT30;40438;52.992;18.604;2023-04-03T10:22:36;21.48;42.28
54540;SHT30;40438;52.992;18.604;2023-04-03T10:25:05;21.52;42.46
54540;SHT30;40438;52.992;18.604;2023-04-03T10:27:44;21.52;42.78
54540;SHT30;40438;52.992;18.604;2023-04-03T10:30:21;21.54;42.95
54540;SHT30;40438;52.992;18.604;2023-04-03T10:32:58;21.57;43.09
54540;SHT30;40438;52.992;18.604;2023-04-03T10:35:36;21.54;43.58
54540;SHT30;40438;52.992;18.604;2023-04-03T10:38:09;21.52;44.03
54540;SHT30;40438;52.992;18.604;2023-04-03T10:40:47;21.48;44.27
54540;SHT30;40438;52.992;18.604;2023-04-03T10:43:23;21.51;44.50
54540;SHT30;40438;52.992;18.604;2023-04-03T10:45:57;21.49;44.66
54540;SHT30;40438;52.992;18.604;2023-04-03T10:48:38;21.42;44.71
54540;SHT30;40438;52.992;18.604;2023-04-03T10:51:13;21.38;44.92
54540;SHT30;40438;52.992;18.604;2023-04-03T10:53:45;21.37;45.00
54540;SHT30;40438;52.992;18.604;2023-04-03T10:56:18;21.37;45.31
54540;SHT30;40438;52.992;18.604;2023-04-03T10:58:48;21.35;44.85
54540;SHT30;40438;52.992;18.604;2023-04-03T11:01:19;21.35;44.95
54540;SHT30;40438;52.992;18.604;2023-04-03T11:03:49;21.30;45.63
54540;SHT30;40438;52.992;18.604;2023-04-03T11:06:17;21.28;46.20
54540;SHT30;40438;52.992;18.604;2023-04-03T11:08:48;21.22;46.31
54540;SHT30;40438;52.992;18.604;2023-04-03T11:11:17;21.24;46.92
54540;SHT30;40438;52.992;18.604;2023-04-03T11:13:49;21.22;47.29
54540;SHT30;40438;52.992;18.604;2023-04-03T11:16:21;21.27;47.72
54540;SHT30;40438;52.992;18.604;2023-04-03T11:18:51;21.28;48.02
54540;SHT30;40438;52.992;18.604;2023-04-03T11:21:20;21.28;48.21
54540;SHT30;40438;52.992;18.604;2023-04-03T11:23:47;21.30;48.91
54540;SHT30;40438;52.992;18.604;2023-04-03T11:26:15;21.30;49.25
54540;SHT30;40438;52.992;18.604;2023-04-03T11:28:42;21.34;50.02
54540;SHT30;40438;52.992;18.604;2023-04-03T11:31:20;21.32;50.58
54540;SHT30;40438;52.992;18.604;2023-04-03T11:33:55;21.38;51.07
54540;SHT30;40438;52.992;18.604;2023-04-03T11:36:25;21.32;51.36
54540;SHT30;40438;52.992;18.604;2023-04-03T11:38:54;21.34;51.18
54540;SHT30;40438;52.992;18.604;2023-04-03T11:41:26;21.27;50.29
54540;SHT30;40438;52.992;18.604;2023-04-03T11:43:56;21.24;52.38
54540;SHT30;40438;52.992;18.604;2023-04-03T11:46:50;21.31;53.70
54540;SHT30;40438;52.992;18.604;2023-04-03T11:49:50;21.31;54.41
54540;SHT30;40438;52.992;18.604;2023-04-03T11:55:44;21.27;53.92
54540;SHT30;40438;52.992;18.604;2023-04-03T11:58:15;21.28;54.54
54540;SHT30;40438;52.992;18.604;2023-04-03T12:01:08;21.24;54.46
54540;SHT30;40438;52.992;18.604;2023-04-03T12:10:17;21.21;52.94
54540;SHT30;40438;52.992;18.604;2023-04-03T12:12:56;21.13;53.17
54540;SHT30;40438;52.992;18.604;2023-04-03T12:15:25;21.07;53.71
54540;SHT30;40438;52.992;18.604;2023-04-03T12:17:52;21.03;54.36
54540;SHT30;40438;52.992;18.604;2023-04-03T12:20:54;21.13;55.21
54540;SHT30;40438;52.992;18.604;2023-04-03T12:23:28;21.21;53.00
54540;SHT30;40438;52.992;18.604;2023-04-03T12:26:05;21.17;52.55
54540;SHT30;40438;52.992;18.604;2023-04-03T12:28:37;21.06;52.01
54540;SHT30;40438;52.992;18.604;2023-04-03T12:31:04;20.99;52.52
54540;SHT30;40438;52.992;18.604;2023-04-03T12:33:38;21.11;52.25
54540;SHT30;40438;52.992;18.604;2023-04-03T12:36:11;21.17;53.21
54540;SHT30;40438;52.992;18.604;2023-04-03T12:38:55;21.18;54.42
54540;SHT30;40438;52.992;18.604;2023-04-03T12:41:33;21.35;54.25
54540;SHT30;40438;52.992;18.604;2023-04-03T12:44:12;21.45;55.36
54540;SHT30;40438;52.992;18.604;2023-04-03T12:46:43;21.49;55.42
54540;SHT30;40438;52.992;18.604;2023-04-03T12:49:31;21.37;55.55
54540;SHT30;40438;52.992;18.604;2023-04-03T12:51:58;21.47;54.44
54540;SHT30;40438;52.992;18.604;2023-04-03T12:54:29;21.31;55.02
54540;SHT30;40438;52.992;18.604;2023-04-03T12:57:10;21.20;53.51
54540;SHT30;40438;52.992;18.604;2023-04-03T12:59:36;21.08;53.80
54540;SHT30;40438;52.992;18.604;2023-04-03T13:02:02;21.07;54.01
54540;SHT30;40438;52.992;18.604;2023-04-03T13:04:30;21.14;54.09
54540;SHT30;40438;52.992;18.604;2023-04-03T13:06:57;21.66;53.54
54540;SHT30;40438;52.992;18.604;2023-04-03T13:09:25;21.40;52.56
54540;SHT30;40438;52.992;18.604;2023-04-03T13:11:54;21.21;52.23
54540;SHT30;40438;52.992;18.604;2023-04-03T13:14:25;21.01;52.70
54540;SHT30;40438;52.992;18.604;2023-04-03T13:16:55;21.00;52.84
54540;SHT30;40438;52.992;18.604;2023-04-03T13:19:23;20.91;52.75
54540;SHT30;40438;52.992;18.604;2023-04-03T13:21:54;20.77;52.50
54540;SHT30;40438;52.992;18.604;2023-04-03T13:24:22;20.83;53.13
54540;SHT30;40438;52.992;18.604;2023-04-03T13:26:48;20.86;52.66
54540;SHT30;40438;52.992;18.604;2023-04-03T13:29:22;20.91;53.37
54540;SHT30;40438;52.992;18.604;2023-04-03T13:31:52;20.97;53.43
54540;SHT30;40438;52.992;18.604;2023-04-03T13:34:19;20.94;53.47
54540;SHT30;40438;52.992;18.604;2023-04-03T13:36:55;21.08;52.40
54540;SHT30;40438;52.992;18.604;2023-04-03T13:39:23;21.20;51.76
54540;SHT30;40438;52.992;18.604;2023-04-03T13:41:51;21.14;51.71
54540;SHT30;40438;52.992;18.604;2023-04-03T13:44:25;20.94;51.66
54540;SHT30;40438;52.992;18.604;2023-04-03T13:46:54;20.96;52.45
54540;SHT30;40438;52.992;18.604;2023-04-03T13:49:21;20.93;52.79
54540;SHT30;40438;52.992;18.604;2023-04-03T13:51:48;20.90;52.76
54540;SHT30;40438;52.992;18.604;2023-04-03T13:54:19;20.96;52.30
54540;SHT30;40438;52.992;18.604;2023-04-03T13:56:45;21.03;52.52
54540;SHT30;40438;52.992;18.604;2023-04-03T13:59:23;21.10;51.79
54540;SHT30;40438;52.992;18.604;2023-04-03T14:01:53;21.20;51.22
54540;SHT30;40438;52.992;18.604;2023-04-03T14:04:21;21.15;51.14
54540;SHT30;40438;52.992;18.604;2023-04-03T14:06:47;21.06;52.18
54540;SHT30;40438;52.992;18.604;2023-04-03T14:09:14;21.01;51.68
54540;SHT30;40438;52.992;18.604;2023-04-03T14:11:41;21.04;50.13
54540;SHT30;40438;52.992;18.604;2023-04-03T14:14:13;21.20;50.30
54540;SHT30;40438;52.992;18.604;2023-04-03T14:16:42;21.24;48.55
54540;SHT30;40438;52.992;18.604;2023-04-03T14:19:17;21.21;49.33
54540;SHT30;40438;52.992;18.604;2023-04-03T14:21:43;21.21;48.87
54540;SHT30;40438;52.992;18.604;2023-04-03T14:24:09;21.08;49.91
54540;SHT30;40438;52.992;18.604;2023-04-03T14:26:35;21.13;48.71
54540;SHT30;40438;52.992;18.604;2023-04-03T14:29:00;21.15;48.44
54540;SHT30;40438;52.992;18.604;2023-04-03T14:31:26;21.26;49.18
54540;SHT30;40438;52.992;18.604;2023-04-03T14:33:52;21.27;48.46
54540;SHT30;40438;52.992;18.604;2023-04-03T14:36:21;21.26;48.39
54540;SHT30;40438;52.992;18.604;2023-04-03T14:38:48;20.33;40.02
54540;SHT30;40438;52.992;18.604;2023-04-03T14:43:40;17.86;45.60
54540;SHT30;40438;52.992;18.604;2023-04-03T14:46:12;20.84;48.41
54540;SHT30;40438;52.992;18.604;2023-04-03T14:48:38;21.21;47.76
54540;SHT30;40438;52.992;18.604;2023-04-03T14:51:04;21.22;48.60
54540;SHT30;40438;52.992;18.604;2023-04-03T14:53:32;21.38;48.51
54540;SHT30;40438;52.992;18.604;2023-04-03T14:55:58;21.58;49.40
54540;SHT30;40438;52.992;18.604;2023-04-03T14:58:24;21.57;48.90
54540;SHT30;40438;52.992;18.604;2023-04-03T15:00:49;21.62;48.39
54540;SHT30;40438;52.992;18.604;2023-04-03T15:03:17;21.44;48.89
54540;SHT30;40438;52.992;18.604;2023-04-03T15:05:44;21.37;49.66
54540;SHT30;40438;52.992;18.604;2023-04-03T15:08:22;21.52;50.23
54540;SHT30;40438;52.992;18.604;2023-04-03T15:10:50;21.62;49.63
54540;SHT30;40438;52.992;18.604;2023-04-03T15:13:16;21.61;49.45
54540;SHT30;40438;52.992;18.604;2023-04-03T15:15:42;21.65;50.33
54540;SHT30;40438;52.992;18.604;2023-04-03T15:18:14;21.58;50.34
54540;SHT30;40438;52.992;18.604;2023-04-03T15:20:41;21.57;51.52
54540;SHT30;40438;52.992;18.604;2023-04-03T15:23:06;21.65;51.19
54540;SHT30;40438;52.992;18.604;2023-04-03T15:25:32;21.61;50.24
54540;SHT30;40438;52.992;18.604;2023-04-03T15:27:59;21.57;50.12
54540;SHT30;40438;52.992;18.604;2023-04-03T15:30:25;21.57;50.21
54540;SHT30;40438;52.992;18.604;2023-04-03T15:32:51;21.44;50.88
54540;SHT30;40438;52.992;18.604;2023-04-03T15:35:17;21.34;51.99
54540;SHT30;40438;52.992;18.604;2023-04-03T15:37:43;21.34;52.15